Туризм
Свали.ру
Погода в мире
ИА "Метеоновости"
Информеры
для сайтов
Туры
поиск и заказ
Авиабилеты
регулярные и чартерные рейсы
 
    На главную   Табло рисков задержки   Авиабилеты   Расписание авиарейсов

Corumbá International Airport    ICAO или ID: SBCR, IATA: CMG
Небольшой аэропорт, регулярные рейсы
добавить в избранное


широта:
долгота:
высота над уровнем моря:
-19°1'
-57°40'

141 м
Страна: Бразилия (Brazil)
погода
климат
описание
туры
отели
аэропорты
Риск задержки рейсов из-за погоды
Факт:  
Прогноз:  
 Карта
 




Прогноз погоды на 24 ч. с 00:00 23-07-2017 по 00:00 30-11-1999 UTC
Прогнозируемый риск задержки рейсов из-за погодных условий
 
SBCR на 24ч. с 23/00ч. до 23/24ч.Tmin=17oC, Tmax=31oC, ветер В(100) 3 м/c, ночь, день

Исходная телеграмма в коде TAF
SBCR 222200Z 2300/2324 10005KT CAVOK TN17/2309Z TX31/2318Z

Раскодировка телеграмм производится в автоматическом режиме, в телеграммах могут содержаться ошибки, приводящие к их неправильной интерпретации.

Предупреждение: данные на этом сайте не могут быть использованы для планирования полётов и предоставляются только в информационных целях.
Найти аэропорт
По названию или городу
только регулярные рейсы

Избранные аэропорты
Список пуст



© 2008 Данио-Пресс. Все права защищены.
Использование материалов сайта возможно только с согласия администрации сервера.
По вопросам рекламы и размещения информации обращаться сюда.


 Рейтинг@Mail.ru  Rambler's Top100